Time;durP1;ratioP1;P1;durP2;ratioP2;P2;SDS_P1;SDS_P2;PMS_P1;PMS_P2;Temp;Humidity;BMP_temperature;BMP_pressure;BME280_temperature;BME280_humidity;BME280_pressure;Samples;Min_cycle;Max_cycle;Signal;HPM_P1;HPM_P2
2022/09/10 00:01:31;;;;;;;1.00;1.00;;;15.40;99.90;;;;;;5074953;28;20204;-90
2022/09/10 00:04:01;;;;;;;1.58;1.25;;;15.40;99.90;;;;;;5078711;28;20224;-90
2022/09/10 00:06:33;;;;;;;1.20;1.13;;;15.40;99.90;;;;;;5076940;28;20201;-91
2022/09/10 00:09:01;;;;;;;1.30;1.20;;;15.40;99.90;;;;;;5075256;28;20228;-91
2022/09/10 00:11:30;;;;;;;1.52;1.20;;;15.40;99.90;;;;;;5074776;28;20228;-92
2022/09/10 00:14:02;;;;;;;1.27;1.17;;;15.40;99.90;;;;;;5075104;28;20201;-90
2022/09/10 00:16:32;;;;;;;1.02;0.90;;;15.40;99.90;;;;;;5074617;28;20201;-91
2022/09/10 00:19:01;;;;;;;0.82;0.82;;;15.40;99.90;;;;;;5074452;28;20221;-92
2022/09/10 00:21:29;;;;;;;1.55;1.00;;;15.40;99.90;;;;;;5074862;28;20211;-91
2022/09/10 00:23:58;;;;;;;0.77;0.77;;;15.40;99.90;;;;;;5074531;28;20205;-91
2022/09/10 00:26:29;;;;;;;1.23;1.10;;;15.50;99.90;;;;;;5074759;28;20209;-91
2022/09/10 00:28:59;;;;;;;0.82;0.82;;;15.40;99.90;;;;;;5074177;28;20235;-91
2022/09/10 00:31:30;;;;;;;1.10;1.10;;;15.40;99.90;;;;;;5074146;28;20228;-91
2022/09/10 00:34:00;;;;;;;0.93;0.93;;;15.40;99.90;;;;;;5074452;28;20216;-91
2022/09/10 00:36:31;;;;;;;0.70;0.70;;;15.40;99.90;;;;;;5074569;28;20205;-90
2022/09/10 00:39:02;;;;;;;0.80;0.80;;;15.40;99.90;;;;;;5074102;28;20320;-90
2022/09/10 00:41:33;;;;;;;1.00;1.00;;;15.50;99.90;;;;;;5074625;28;20209;-87
2022/09/10 00:44:03;;;;;;;1.08;1.08;;;15.40;99.90;;;;;;5073752;28;20208;-87
2022/09/10 00:46:39;;;;;;;0.98;0.95;;;15.40;99.90;;;;;;5073714;28;20209;-86
2022/09/10 00:49:14;;;;;;;1.27;1.20;;;15.40;99.90;;;;;;5073873;28;20231;-88
2022/09/10 00:51:43;;;;;;;1.23;1.10;;;15.40;99.90;;;;;;5073847;28;20229;-88
2022/09/10 00:54:14;;;;;;;1.00;1.00;;;15.40;99.90;;;;;;5073930;28;20213;-88
2022/09/10 00:56:44;;;;;;;1.55;1.45;;;15.40;99.90;;;;;;5073546;28;20209;-88
2022/09/10 00:59:17;;;;;;;1.20;1.15;;;15.40;99.90;;;;;;5073311;28;20241;-87
2022/09/10 01:01:48;;;;;;;7.90;1.45;;;15.40;99.90;;;;;;5073970;28;20205;-88
2022/09/10 01:04:16;;;;;;;1.60;1.50;;;15.40;99.90;;;;;;5073734;28;20205;-88
2022/09/10 01:06:48;;;;;;;1.48;1.38;;;15.40;99.90;;;;;;5073804;28;20208;-88
2022/09/10 01:09:17;;;;;;;1.30;1.25;;;15.40;99.90;;;;;;5073623;28;20232;-88
2022/09/10 01:12:14;;;;;;;1.48;1.30;;;15.40;99.90;;;;;;5073357;28;20220;-88
2022/09/10 01:15:08;;;;;;;1.40;1.15;;;15.40;99.90;;;;;;5073933;28;20212;-89
2022/09/10 01:17:56;;;;;;;1.80;1.35;;;15.40;99.90;;;;;;5073534;28;20216;-88
2022/09/10 01:20:45;;;;;;;1.65;1.25;;;15.30;99.90;;;;;;5073121;28;20292;-88
2022/09/10 01:23:43;;;;;;;1.05;1.05;;;15.40;99.90;;;;;;5073491;28;20208;-88
2022/09/10 01:26:26;;;;;;;1.35;1.25;;;15.30;99.90;;;;;;5073004;28;20215;-88
2022/09/10 01:29:01;;;;;;;1.50;1.40;;;15.30;99.90;;;;;;5073212;28;20247;-88
2022/09/10 01:31:37;;;;;;;1.40;1.30;;;15.30;99.90;;;;;;5073170;28;20213;-89
2022/09/10 01:34:10;;;;;;;1.95;1.30;;;15.30;99.90;;;;;;5072937;28;20215;-88
2022/09/10 01:36:44;;;;;;;1.50;1.40;;;15.30;99.90;;;;;;5073009;28;20212;-89
2022/09/10 01:39:13;;;;;;;0.98;0.98;;;15.30;99.90;;;;;;5072833;28;20237;-88
2022/09/10 01:41:41;;;;;;;4.20;1.42;;;15.30;99.90;;;;;;5072948;28;20207;-87
2022/09/10 01:44:26;;;;;;;1.00;1.00;;;15.30;99.90;;;;;;5072990;28;20209;-88
2022/09/10 01:47:03;;;;;;;1.20;1.10;;;15.30;99.90;;;;;;5072991;28;20212;-87
2022/09/10 01:49:39;;;;;;;1.73;1.30;;;15.30;99.90;;;;;;5073049;28;20235;-88
2022/09/10 01:52:24;;;;;;;1.67;1.58;;;15.30;99.90;;;;;;5073262;28;20228;-87
2022/09/10 01:55:04;;;;;;;1.63;1.52;;;15.40;99.90;;;;;;5073797;28;20201;-87
2022/09/10 01:57:40;;;;;;;0.95;0.95;;;15.40;99.90;;;;;;5072444;28;20209;-88
2022/09/10 02:00:12;;;;;;;1.17;1.17;;;15.40;99.90;;;;;;5072563;28;20197;-87
2022/09/10 02:02:47;;;;;;;1.00;1.00;;;15.30;99.90;;;;;;5072729;28;20231;-88
2022/09/10 02:05:18;;;;;;;2.17;1.42;;;15.30;99.90;;;;;;5072779;28;20210;-87
2022/09/10 02:07:48;;;;;;;1.70;1.60;;;15.30;99.90;;;;;;5072417;28;20231;-88
2022/09/10 02:10:17;;;;;;;1.98;1.50;;;15.30;99.90;;;;;;5072652;28;20209;-87
2022/09/10 02:12:46;;;;;;;2.03;1.42;;;15.20;99.90;;;;;;5072178;28;20224;-87
2022/09/10 02:15:18;;;;;;;3.13;1.50;;;15.20;99.90;;;;;;5072408;28;20208;-88
2022/09/10 02:17:48;;;;;;;1.40;1.30;;;15.20;99.90;;;;;;5072770;28;20308;-89
2022/09/10 02:20:18;;;;;;;1.45;1.25;;;15.20;99.90;;;;;;5072241;28;20224;-87
2022/09/10 02:22:52;;;;;;;1.98;1.80;;;15.20;99.90;;;;;;5072344;28;20205;-87
2022/09/10 02:25:20;;;;;;;1.70;1.60;;;15.10;99.90;;;;;;5072423;28;20213;-87
2022/09/10 02:27:48;;;;;;;1.73;1.63;;;15.20;99.90;;;;;;5072156;28;20240;-87
2022/09/10 02:30:19;;;;;;;1.83;1.70;;;15.10;99.90;;;;;;5072264;28;20209;-87
2022/09/10 02:32:47;;;;;;;2.47;2.25;;;15.20;99.90;;;;;;5072409;28;20217;-88
2022/09/10 02:35:15;;;;;;;2.22;2.05;;;15.20;99.90;;;;;;5072979;28;20205;-87
2022/09/10 02:37:43;;;;;;;2.75;2.20;;;15.20;99.90;;;;;;5072472;28;20232;-88
2022/09/10 02:40:13;;;;;;;4.78;2.47;;;15.20;99.90;;;;;;5071869;28;20212;-87
2022/09/10 02:42:45;;;;;;;2.70;2.33;;;15.20;99.90;;;;;;5072577;28;20209;-87
2022/09/10 02:45:14;;;;;;;6.38;2.55;;;15.20;99.90;;;;;;5072087;28;20212;-87
2022/09/10 02:47:43;;;;;;;3.97;3.28;;;15.20;99.90;;;;;;5072317;28;20240;-87
2022/09/10 02:50:12;;;;;;;4.38;3.83;;;15.20;99.90;;;;;;5072346;28;20209;-87
2022/09/10 02:52:40;;;;;;;3.95;3.65;;;15.20;99.90;;;;;;5071972;28;20221;-87
2022/09/10 02:55:09;;;;;;;4.43;4.03;;;15.20;99.90;;;;;;5072348;28;20205;-87
2022/09/10 02:57:38;;;;;;;4.00;3.70;;;15.20;99.90;;;;;;5071906;28;20205;-87
2022/09/10 03:00:08;;;;;;;4.78;3.60;;;15.20;99.90;;;;;;5071823;28;20203;-87
2022/09/10 03:02:37;;;;;;;4.32;3.53;;;15.20;99.90;;;;;;5072581;28;20197;-88
2022/09/10 03:05:07;;;;;;;4.70;4.30;;;15.20;99.90;;;;;;5072247;28;20208;-88
2022/09/10 03:07:35;;;;;;;4.03;3.65;;;15.20;99.90;;;;;;5071820;28;20221;-88
2022/09/10 03:10:04;;;;;;;4.57;4.18;;;15.20;99.90;;;;;;5075124;28;20208;-91
2022/09/10 03:12:33;;;;;;;6.43;3.85;;;15.20;99.90;;;;;;5075829;28;20224;-90
2022/09/10 03:15:01;;;;;;;4.50;4.10;;;15.20;99.90;;;;;;5075904;28;20212;-91
2022/09/10 03:17:29;;;;;;;3.60;3.30;;;15.20;99.90;;;;;;5075970;28;20201;-91
2022/09/10 03:19:58;;;;;;;3.17;2.97;;;15.20;99.90;;;;;;5075431;28;20209;-91
2022/09/10 03:22:27;;;;;;;4.40;4.00;;;15.10;99.90;;;;;;5075700;28;20205;-91
2022/09/10 03:24:57;;;;;;;3.90;3.53;;;15.20;99.90;;;;;;5075807;28;20231;-90
2022/09/10 03:27:25;;;;;;;3.95;3.65;;;15.20;99.90;;;;;;5075682;28;20208;-91
2022/09/10 03:29:53;;;;;;;5.18;4.53;;;15.10;99.90;;;;;;5075350;28;20212;-92
2022/09/10 03:32:22;;;;;;;4.78;4.38;;;15.10;99.90;;;;;;5075246;28;20201;-91
2022/09/10 03:34:50;;;;;;;4.35;4.00;;;15.10;99.90;;;;;;5075474;28;20213;-91
2022/09/10 03:37:19;;;;;;;8.93;5.03;;;15.20;99.90;;;;;;5075221;28;20212;-92
2022/09/10 03:39:49;;;;;;;7.25;5.18;;;15.20;99.90;;;;;;5075065;28;20205;-91
2022/09/10 03:42:18;;;;;;;5.43;4.90;;;15.20;99.90;;;;;;5075740;28;20209;-91
2022/09/10 03:44:46;;;;;;;5.60;5.10;;;15.20;99.90;;;;;;5075095;28;20212;-91
2022/09/10 03:47:14;;;;;;;6.28;5.45;;;15.20;99.90;;;;;;5075019;28;20208;-91
2022/09/10 03:49:42;;;;;;;9.00;5.68;;;15.30;99.90;;;;;;5074749;28;20225;-91
2022/09/10 03:52:11;;;;;;;7.07;5.85;;;15.30;99.90;;;;;;5075010;28;20213;-91
2022/09/10 03:54:40;;;;;;;5.40;4.90;;;15.30;99.90;;;;;;5074801;28;20305;-91
2022/09/10 03:57:09;;;;;;;5.60;5.15;;;15.30;99.90;;;;;;5075000;28;20212;-91
2022/09/10 03:59:39;;;;;;;6.30;5.70;;;15.30;99.90;;;;;;5074692;28;20225;-91
2022/09/10 04:02:09;;;;;;;6.43;5.80;;;15.30;99.90;;;;;;5074801;28;20205;-90
2022/09/10 04:04:37;;;;;;;4.90;4.50;;;15.30;99.90;;;;;;5074676;28;20197;-92
2022/09/10 04:07:05;;;;;;;6.95;5.22;;;15.30;99.90;;;;;;5074942;28;20209;-92
2022/09/10 04:09:34;;;;;;;6.07;5.35;;;15.30;99.90;;;;;;5074533;28;20232;-91
2022/09/10 04:12:03;;;;;;;5.07;4.68;;;15.30;99.90;;;;;;5075013;28;20213;-91
2022/09/10 04:14:33;;;;;;;7.85;5.10;;;15.30;99.90;;;;;;5074483;28;20239;-91
2022/09/10 04:17:01;;;;;;;5.93;4.93;;;15.30;99.90;;;;;;5074527;28;20325;-91
2022/09/10 04:19:30;;;;;;;5.70;5.20;;;15.30;99.90;;;;;;5074701;28;20225;-91
2022/09/10 04:21:58;;;;;;;5.43;4.88;;;15.30;99.90;;;;;;5073985;28;20201;-91
2022/09/10 04:24:26;;;;;;;6.25;5.38;;;15.30;99.90;;;;;;5074565;28;20197;-91
2022/09/10 04:26:54;;;;;;;5.07;4.68;;;15.30;99.90;;;;;;5074498;28;20211;-91
2022/09/10 04:29:23;;;;;;;6.18;5.63;;;15.30;99.90;;;;;;5074003;28;20237;-91
2022/09/10 04:31:54;;;;;;;6.97;5.55;;;15.30;99.90;;;;;;5074337;28;20213;-91
2022/09/10 04:34:22;;;;;;;4.97;4.43;;;15.30;99.90;;;;;;5074004;28;20256;-91
2022/09/10 04:36:52;;;;;;;4.78;4.35;;;15.30;99.90;;;;;;5074274;28;20212;-91
2022/09/10 04:39:20;;;;;;;4.10;3.50;;;15.30;99.90;;;;;;5074196;28;20229;-92
2022/09/10 04:41:48;;;;;;;4.57;4.15;;;15.30;99.90;;;;;;5074160;28;20209;-91
2022/09/10 04:44:19;;;;;;;4.00;3.70;;;15.40;99.90;;;;;;5074661;28;20208;-91
2022/09/10 04:46:47;;;;;;;4.00;3.70;;;15.40;99.90;;;;;;5074322;28;20216;-91
2022/09/10 04:49:17;;;;;;;6.57;4.07;;;15.40;99.90;;;;;;5073689;28;20232;-91
2022/09/10 04:51:45;;;;;;;3.35;3.15;;;15.40;99.90;;;;;;5074107;28;20209;-91
2022/09/10 04:54:14;;;;;;;4.50;3.88;;;15.40;99.90;;;;;;5073517;28;20216;-91
2022/09/10 04:56:43;;;;;;;8.48;3.85;;;15.50;99.90;;;;;;5073542;28;20213;-92
2022/09/10 04:59:11;;;;;;;4.07;3.33;;;15.50;99.90;;;;;;5073857;28;20225;-92
2022/09/10 05:01:39;;;;;;;4.03;3.33;;;15.50;99.90;;;;;;5073615;28;20201;-91
2022/09/10 05:04:08;;;;;;;2.95;2.75;;;15.50;99.90;;;;;;5073792;28;20209;-91
2022/09/10 05:06:38;;;;;;;6.80;3.25;;;15.50;99.90;;;;;;5074000;28;20212;-91
2022/09/10 05:09:06;;;;;;;3.67;2.90;;;15.40;99.90;;;;;;5073671;28;20229;-91
2022/09/10 05:11:35;;;;;;;2.83;2.63;;;15.40;99.90;;;;;;5073488;28;20217;-91
2022/09/10 05:14:03;;;;;;;3.35;3.03;;;15.40;99.90;;;;;;5073452;28;20302;-91
2022/09/10 05:16:32;;;;;;;3.35;3.05;;;15.40;99.90;;;;;;5073521;28;20209;-91
2022/09/10 05:19:00;;;;;;;2.20;2.10;;;15.40;99.90;;;;;;5073532;28;20248;-91
2022/09/10 05:21:30;;;;;;;2.58;2.38;;;15.40;99.90;;;;;;5073689;28;20201;-91
2022/09/10 05:23:59;;;;;;;2.25;2.10;;;15.40;99.90;;;;;;5072948;28;20204;-91
2022/09/10 05:26:28;;;;;;;3.10;2.70;;;15.40;99.90;;;;;;5073914;28;20209;-91
2022/09/10 05:28:58;;;;;;;2.20;2.10;;;15.40;99.90;;;;;;5074687;28;20233;-92
2022/09/10 05:31:27;;;;;;;2.58;2.38;;;15.40;99.90;;;;;;5074340;28;20202;-90
2022/09/10 05:33:56;;;;;;;2.67;2.20;;;15.40;99.90;;;;;;5073241;28;20251;-91
2022/09/10 05:36:24;;;;;;;5.28;2.70;;;15.30;99.90;;;;;;5076688;28;20211;-90
2022/09/10 05:38:53;;;;;;;2.15;2.00;;;15.40;99.90;;;;;;5079831;28;20225;-90
2022/09/10 05:41:24;;;;;;;7.30;2.40;;;15.30;99.90;;;;;;5079708;28;20232;-90
2022/09/10 05:43:52;;;;;;;2.20;1.98;;;15.30;99.90;;;;;;5076590;28;20200;-91
2022/09/10 05:46:21;;;;;;;16.38;2.35;;;15.40;99.90;;;;;;5074606;28;20213;-90
2022/09/10 05:48:49;;;;;;;1.95;1.83;;;15.40;99.90;;;;;;5072966;28;20259;-90
2022/09/10 05:51:18;;;;;;;2.17;2.00;;;15.50;99.90;;;;;;5073535;28;20209;-91
2022/09/10 05:53:46;;;;;;;2.20;2.10;;;15.50;99.90;;;;;;5072782;28;20204;-91
2022/09/10 05:56:15;;;;;;;4.57;2.45;;;15.60;99.90;;;;;;5072937;28;20205;-91
2022/09/10 05:58:45;;;;;;;2.60;2.30;;;15.60;99.90;;;;;;5073654;28;20229;-91
2022/09/10 06:01:13;;;;;;;2.28;1.88;;;15.60;99.90;;;;;;5075371;28;20208;-90
2022/09/10 06:03:41;;;;;;;1.77;1.67;;;15.60;99.90;;;;;;5074062;28;20208;-89
2022/09/10 06:06:09;;;;;;;2.00;1.90;;;15.60;99.90;;;;;;5073242;28;20208;-90
2022/09/10 06:08:38;;;;;;;2.13;1.95;;;15.70;99.90;;;;;;5072852;28;20232;-90
2022/09/10 06:11:07;;;;;;;2.35;2.15;;;15.80;99.90;;;;;;5073265;28;20288;-90
2022/09/10 06:13:38;;;;;;;2.60;2.25;;;15.80;99.90;;;;;;5073142;28;20212;-91
2022/09/10 06:16:08;;;;;;;8.93;1.88;;;15.80;99.90;;;;;;5072892;28;20229;-90
2022/09/10 06:18:37;;;;;;;2.45;1.90;;;15.80;99.90;;;;;;5072592;28;20311;-91
2022/09/10 06:21:07;;;;;;;2.67;2.22;;;15.90;99.90;;;;;;5072915;28;20197;-89
2022/09/10 06:23:36;;;;;;;1.83;1.73;;;16.00;99.90;;;;;;5072862;28;20213;-90
2022/09/10 06:26:05;;;;;;;1.80;1.70;;;16.00;99.90;;;;;;5072766;28;20201;-91
2022/09/10 06:28:34;;;;;;;2.13;1.92;;;16.10;99.90;;;;;;5072376;28;20243;-91
2022/09/10 06:31:04;;;;;;;1.98;1.85;;;16.10;99.90;;;;;;5073180;28;20205;-90
2022/09/10 06:33:35;;;;;;;2.13;2.03;;;16.20;99.90;;;;;;5072909;28;20232;-91
2022/09/10 06:36:04;;;;;;;4.28;1.90;;;16.20;99.90;;;;;;5072292;28;20225;-90
2022/09/10 06:38:33;;;;;;;1.90;1.80;;;16.30;99.90;;;;;;5072143;28;20229;-90
2022/09/10 06:41:03;;;;;;;1.60;1.50;;;16.40;99.90;;;;;;5072438;28;20211;-90
2022/09/10 06:43:35;;;;;;;1.80;1.70;;;16.40;99.90;;;;;;5073288;28;20217;-89
2022/09/10 06:46:08;;;;;;;2.03;1.83;;;16.40;99.90;;;;;;5076504;28;20201;-89
2022/09/10 06:49:00;;;;;;;2.70;2.30;;;16.50;99.90;;;;;;5075896;28;20224;-90
2022/09/10 06:51:29;;;;;;;2.03;1.88;;;16.60;99.90;;;;;;5076522;28;20224;-90
2022/09/10 06:53:57;;;;;;;1.98;1.52;;;16.70;99.90;;;;;;5076762;28;20212;-90
2022/09/10 06:56:26;;;;;;;2.15;1.92;;;16.80;99.90;;;;;;5075963;28;20228;-90
2022/09/10 06:58:56;;;;;;;2.00;1.67;;;16.90;99.90;;;;;;5075807;28;20225;-90
2022/09/10 07:01:29;;;;;;;2.13;1.92;;;17.00;99.90;;;;;;5076007;28;20266;-90
2022/09/10 07:04:00;;;;;;;1.52;1.48;;;17.00;99.90;;;;;;5076232;28;20200;-90
2022/09/10 07:06:33;;;;;;;1.80;1.70;;;17.00;99.90;;;;;;5076122;28;20205;-90
2022/09/10 07:09:03;;;;;;;2.65;2.30;;;16.90;99.90;;;;;;5075798;28;20229;-90
2022/09/10 07:11:31;;;;;;;1.90;1.75;;;17.00;99.90;;;;;;5075907;28;20209;-90
2022/09/10 07:14:00;;;;;;;1.52;1.42;;;17.10;99.90;;;;;;5075891;28;20201;-90
2022/09/10 07:16:29;;;;;;;9.35;2.50;;;17.10;99.90;;;;;;5075614;28;20225;-91
2022/09/10 07:19:00;;;;;;;2.30;2.10;;;17.20;99.90;;;;;;5076296;28;20220;-90
2022/09/10 07:21:29;;;;;;;1.90;1.67;;;17.20;99.90;;;;;;5076320;28;20207;-89
2022/09/10 07:23:59;;;;;;;1.90;1.80;;;17.30;99.90;;;;;;5075803;28;20208;-90
2022/09/10 07:26:28;;;;;;;2.20;2.00;;;17.30;99.90;;;;;;5075600;28;20208;-90
2022/09/10 07:28:57;;;;;;;1.77;1.67;;;17.40;99.90;;;;;;5075611;28;20233;-90
2022/09/10 07:31:28;;;;;;;2.05;1.85;;;17.50;99.90;;;;;;5075455;28;20201;-90
2022/09/10 07:33:58;;;;;;;1.73;1.63;;;17.50;99.90;;;;;;5075737;28;20209;-90
2022/09/10 07:36:27;;;;;;;3.15;2.50;;;17.60;99.90;;;;;;5075224;28;20221;-90
2022/09/10 07:38:56;;;;;;;2.20;2.00;;;17.70;99.90;;;;;;5075399;28;20225;-90
2022/09/10 07:41:28;;;;;;;2.30;1.88;;;17.70;99.90;;;;;;5075553;28;20280;-89
2022/09/10 07:43:57;;;;;;;2.05;1.92;;;17.80;99.90;;;;;;5075497;28;20201;-90
2022/09/10 07:46:27;;;;;;;1.77;1.67;;;17.80;99.90;;;;;;5075809;28;20206;-90
2022/09/10 07:48:57;;;;;;;1.80;1.58;;;18.00;99.90;;;;;;5074750;28;20236;-89
2022/09/10 07:51:28;;;;;;;1.70;1.60;;;18.10;99.90;;;;;;5075862;28;20205;-90
2022/09/10 07:53:58;;;;;;;1.90;1.80;;;18.20;99.90;;;;;;5075258;28;20208;-90
2022/09/10 07:56:30;;;;;;;1.70;1.60;;;18.30;99.90;;;;;;5073998;28;20264;-90
2022/09/10 07:58:59;;;;;;;2.45;1.88;;;18.50;99.90;;;;;;5074826;28;20225;-91
2022/09/10 08:01:27;;;;;;;2.15;1.95;;;18.60;99.90;;;;;;5075013;28;20211;-90
2022/09/10 08:03:57;;;;;;;2.05;1.83;;;18.70;99.90;;;;;;5074884;28;20201;-90
2022/09/10 08:06:27;;;;;;;2.40;1.83;;;18.90;99.90;;;;;;5074420;28;20201;-90
2022/09/10 08:08:55;;;;;;;1.60;1.50;;;18.90;99.90;;;;;;5074779;28;20225;-90
2022/09/10 08:11:24;;;;;;;2.03;1.92;;;19.00;99.90;;;;;;5074543;28;20220;-90
2022/09/10 08:13:55;;;;;;;1.67;1.58;;;19.10;99.90;;;;;;5075076;28;20217;-90
2022/09/10 08:16:25;;;;;;;2.90;1.60;;;19.20;99.90;;;;;;5074771;28;20233;-91
2022/09/10 08:18:56;;;;;;;1.90;1.80;;;19.30;99.90;;;;;;5074804;28;20225;-91
2022/09/10 08:21:24;;;;;;;1.90;1.50;;;19.40;99.90;;;;;;5074664;28;20201;-91
2022/09/10 08:23:55;;;;;;;1.42;1.38;;;19.70;99.90;;;;;;5074422;28;20212;-90
2022/09/10 08:26:24;;;;;;;1.13;1.13;;;19.80;99.90;;;;;;5074710;28;20209;-91
2022/09/10 08:28:54;;;;;;;1.67;1.58;;;20.10;99.90;;;;;;5074514;28;20243;-90
2022/09/10 08:31:23;;;;;;;1.50;1.40;;;20.50;99.90;;;;;;5074393;28;20239;-91
2022/09/10 08:33:53;;;;;;;1.85;1.75;;;20.70;99.90;;;;;;5074170;28;20231;-91
2022/09/10 08:36:22;;;;;;;2.03;1.70;;;21.20;99.90;;;;;;5074204;28;20232;-91
2022/09/10 08:38:50;;;;;;;18.15;1.95;;;21.70;99.90;;;;;;5074176;28;20224;-90
2022/09/10 08:41:31;;;;;;;2.05;1.85;;;22.00;99.90;;;;;;5074185;28;20209;-90
2022/09/10 08:44:06;;;;;;;1.83;1.60;;;22.20;99.90;;;;;;5074051;28;20204;-90
2022/09/10 08:46:40;;;;;;;9.57;1.60;;;22.10;99.90;;;;;;5074010;28;20213;-90
2022/09/10 08:49:15;;;;;;;1.50;1.40;;;22.20;99.90;;;;;;5073867;28;20255;-91
2022/09/10 08:51:49;;;;;;;1.38;1.38;;;22.20;99.90;;;;;;5074085;28;20207;-90
2022/09/10 08:54:21;;;;;;;2.03;1.52;;;22.40;99.90;;;;;;5074168;28;20208;-90
2022/09/10 08:56:54;;;;;;;1.30;1.30;;;22.30;99.90;;;;;;5073671;28;20221;-90
2022/09/10 08:59:25;;;;;;;1.90;1.52;;;22.30;99.90;;;;;;5073631;28;20255;-90
2022/09/10 09:01:58;;;;;;;2.13;1.60;;;21.80;99.90;;;;;;5073404;28;20215;-92
2022/09/10 09:04:34;;;;;;;1.85;1.50;;;21.60;99.90;;;;;;5074029;28;20201;-90
2022/09/10 09:07:10;;;;;;;1.40;1.33;;;21.80;99.90;;;;;;5074217;28;20205;-91
2022/09/10 09:09:38;;;;;;;1.30;1.30;;;22.60;99.90;;;;;;5073927;28;20220;-91
2022/09/10 09:12:19;;;;;;;1.17;1.10;;;23.40;99.90;;;;;;5074018;28;20212;-90
2022/09/10 09:15:00;;;;;;;1.63;1.52;;;24.20;99.90;;;;;;5073591;28;20213;-91
2022/09/10 09:17:57;;;;;;;2.38;1.30;;;24.60;99.90;;;;;;5073487;28;20249;-90
2022/09/10 09:20:39;;;;;;;1.13;1.10;;;24.50;99.90;;;;;;5079107;28;20197;-91
2022/09/10 09:23:21;;;;;;;1.08;1.08;;;24.30;99.90;;;;;;5080104;28;20208;-90
2022/09/10 09:25:52;;;;;;;2.17;1.48;;;24.50;99.90;;;;;;5078651;28;20213;-90
2022/09/10 09:28:41;;;;;;;1.48;1.48;;;24.70;99.90;;;;;;5077432;28;20229;-91
2022/09/10 09:31:15;;;;;;;1.92;1.48;;;24.50;99.90;;;;;;5079865;28;20205;-90
2022/09/10 09:33:45;;;;;;;1.55;1.45;;;24.10;99.90;;;;;;5080863;28;20264;-91
2022/09/10 09:36:18;;;;;;;1.20;1.10;;;24.10;99.90;;;;;;5080657;28;20240;-91
2022/09/10 09:38:49;;;;;;;1.35;1.30;;;24.40;99.90;;;;;;5078090;28;20229;-91
2022/09/10 09:41:24;;;;;;;1.20;1.20;;;24.30;99.90;;;;;;5074190;28;20209;-91
2022/09/10 09:43:58;;;;;;;1.48;1.38;;;23.70;99.90;;;;;;5074323;28;20211;-91
2022/09/10 09:46:26;;;;;;;1.55;1.45;;;23.20;99.90;;;;;;5073450;28;20208;-89
2022/09/10 09:48:58;;;;;;;1.00;1.00;;;22.70;99.90;;;;;;5073387;28;20236;-90
2022/09/10 09:51:34;;;;;;;1.20;1.10;;;22.50;99.90;;;;;;5073760;28;20234;-90
2022/09/10 09:54:07;;;;;;;2.60;1.33;;;22.30;99.90;;;;;;5073541;28;20209;-90
2022/09/10 09:56:58;;;;;;;1.10;1.10;;;22.50;99.90;;;;;;5072247;28;20276;-90
2022/09/10 09:59:31;;;;;;;4.50;1.30;;;22.80;99.90;;;;;;5072501;28;20225;-90
2022/09/10 10:02:05;;;;;;;1.58;1.42;;;23.30;99.90;;;;;;5073281;28;20215;-90
2022/09/10 10:04:35;;;;;;;1.25;0.90;;;23.90;99.90;;;;;;5073106;28;20243;-90
2022/09/10 10:07:10;;;;;;;1.17;1.10;;;24.50;99.90;;;;;;5072569;28;20300;-90
2022/09/10 10:09:43;;;;;;;1.27;1.17;;;24.90;99.90;;;;;;5072489;28;20255;-90
2022/09/10 10:12:20;;;;;;;1.20;1.10;;;25.10;99.90;;;;;;5072904;28;20213;-90
2022/09/10 10:14:50;;;;;;;1.05;1.05;;;25.40;99.90;;;;;;5072811;28;20218;-90
2022/09/10 10:17:42;;;;;;;1.02;1.02;;;25.60;99.90;;;;;;5072514;28;20304;-90
2022/09/10 10:20:12;;;;;;;1.25;1.15;;;25.80;99.90;;;;;;5072399;28;20204;-90
2022/09/10 10:22:42;;;;;;;1.40;1.30;;;25.50;99.90;;;;;;5072803;28;20209;-90
2022/09/10 10:25:35;;;;;;;1.30;1.20;;;25.30;99.90;;;;;;5072832;28;20205;-90
2022/09/10 10:28:04;;;;;;;1.10;1.00;;;25.40;99.90;;;;;;5072230;28;20240;-89
2022/09/10 10:30:33;;;;;;;1.27;1.17;;;25.70;99.90;;;;;;5072907;28;20208;-92
2022/09/10 10:33:03;;;;;;;1.17;1.08;;;25.60;99.90;;;;;;5073018;28;20209;-90
2022/09/10 10:35:36;;;;;;;1.20;1.10;;;25.40;99.90;;;;;;5072904;28;20205;-90
2022/09/10 10:38:29;;;;;;;1.10;1.00;;;24.90;99.90;;;;;;5072417;28;20233;-89
2022/09/10 10:41:21;;;;;;;1.25;1.15;;;24.90;99.90;;;;;;5072572;28;20213;-90
2022/09/10 10:43:59;;;;;;;0.85;0.85;;;24.30;99.90;;;;;;5072462;28;20213;-91
2022/09/10 10:46:36;;;;;;;0.90;0.80;;;23.80;99.90;;;;;;5072469;28;20208;-90
2022/09/10 10:49:19;;;;;;;1.10;0.82;;;23.60;99.90;;;;;;5072183;28;20232;-90
2022/09/10 10:51:58;;;;;;;0.93;0.88;;;23.80;99.90;;;;;;5072680;28;20213;-90
2022/09/10 10:54:40;;;;;;;0.82;0.82;;;24.30;99.90;;;;;;5072600;28;20209;-90
2022/09/10 10:57:18;;;;;;;0.90;0.90;;;24.20;99.90;;;;;;5073112;28;20221;-90
2022/09/10 10:59:56;;;;;;;1.10;1.00;;;24.50;99.90;;;;;;5072467;28;20217;-90
2022/09/10 11:02:40;;;;;;;1.42;0.98;;;24.90;99.90;;;;;;5072580;28;20229;-90
2022/09/10 11:05:20;;;;;;;1.60;1.50;;;25.20;99.90;;;;;;5072098;28;20288;-90
2022/09/10 11:07:52;;;;;;;1.08;1.00;;;26.10;98.50;;;;;;5072275;28;20221;-90
2022/09/10 11:10:25;;;;;;;1.10;1.00;;;26.30;97.70;;;;;;5072119;28;20212;-90
2022/09/10 11:13:03;;;;;;;0.95;0.95;;;25.70;97.40;;;;;;5072461;28;20209;-90
2022/09/10 11:15:37;;;;;;;0.98;0.90;;;25.20;98.10;;;;;;5072257;28;20217;-90
2022/09/10 11:18:15;;;;;;;1.15;0.98;;;25.30;97.70;;;;;;5072048;28;20271;-90
2022/09/10 11:20:46;;;;;;;0.88;0.88;;;25.40;97.80;;;;;;5072250;28;20212;-90
2022/09/10 11:23:26;;;;;;;3.00;1.15;;;25.30;97.80;;;;;;5071912;28;20212;-90
2022/09/10 11:26:01;;;;;;;1.02;1.02;;;24.80;98.00;;;;;;5071937;28;20208;-90
2022/09/10 11:28:33;;;;;;;1.45;1.35;;;24.00;98.90;;;;;;5071809;28;20225;-90
2022/09/10 11:31:06;;;;;;;1.40;1.30;;;23.50;99.40;;;;;;5073435;28;20216;-89
2022/09/10 11:33:45;;;;;;;0.80;0.80;;;23.30;99.90;;;;;;5075979;28;20220;-90
2022/09/10 11:36:23;;;;;;;1.55;1.45;;;23.40;99.90;;;;;;5075535;28;20213;-90
2022/09/10 11:39:04;;;;;;;1.08;0.98;;;23.90;99.90;;;;;;5075244;28;20221;-91
2022/09/10 11:41:35;;;;;;;1.20;1.10;;;24.10;99.90;;;;;;5075709;28;20209;-91
2022/09/10 11:44:14;;;;;;;1.15;1.10;;;24.70;99.40;;;;;;5075400;28;20224;-91
2022/09/10 11:46:47;;;;;;;1.52;1.42;;;25.00;99.10;;;;;;5075419;28;20204;-90
2022/09/10 11:49:21;;;;;;;1.17;1.17;;;24.90;99.60;;;;;;5074992;28;20235;-91
2022/09/10 11:51:50;;;;;;;1.85;1.48;;;25.70;98.60;;;;;;5075401;28;20220;-90
2022/09/10 11:54:25;;;;;;;1.40;1.30;;;26.40;97.10;;;;;;5075203;28;20208;-90
2022/09/10 11:57:01;;;;;;;1.08;1.08;;;26.20;97.20;;;;;;5075212;28;20235;-90
2022/09/10 11:59:47;;;;;;;1.30;1.20;;;25.40;97.20;;;;;;5075156;28;20231;-89
2022/09/10 12:02:41;;;;;;;1.67;1.58;;;24.30;97.90;;;;;;5075421;28;20201;-90
2022/09/10 12:05:22;;;;;;;1.33;1.23;;;23.80;99.10;;;;;;5042002;28;20209;-90
2022/09/10 12:07:59;;;;;;;1.88;1.40;;;23.50;99.60;;;;;;5075030;28;20225;-90
2022/09/10 12:10:33;;;;;;;1.70;1.60;;;23.50;99.90;;;;;;5075063;28;20211;-92
2022/09/10 12:13:08;;;;;;;1.73;1.63;;;23.80;99.90;;;;;;5075152;28;20204;-90
2022/09/10 12:15:37;;;;;;;1.38;1.27;;;24.10;99.50;;;;;;5074832;28;20207;-90
2022/09/10 12:18:14;;;;;;;1.65;1.55;;;24.10;99.00;;;;;;5074497;28;20252;-91
2022/09/10 12:20:50;;;;;;;1.38;1.27;;;24.30;98.90;;;;;;5074975;28;20215;-91
2022/09/10 12:23:28;;;;;;;2.08;1.58;;;24.10;99.00;;;;;;5074769;28;20209;-90
2022/09/10 12:26:00;;;;;;;1.30;1.20;;;23.70;99.30;;;;;;5074602;28;20200;-90
2022/09/10 12:28:59;;;;;;;1.48;1.38;;;23.10;99.80;;;;;;5074149;28;20245;-91
2022/09/10 12:31:28;;;;;;;0.90;0.90;;;22.90;99.90;;;;;;5074341;28;20208;-91
2022/09/10 12:34:18;;;;;;;1.92;1.33;;;22.80;99.90;;;;;;5074590;28;20211;-90
2022/09/10 12:37:22;;;;;;;1.58;1.30;;;23.20;99.90;;;;;;5074913;28;20287;-90
2022/09/10 12:40:23;;;;;;;1.27;1.17;;;23.90;99.90;;;;;;5074839;28;20235;-92
2022/09/10 12:42:51;;;;;;;0.95;0.95;;;23.90;99.90;;;;;;5065134;28;20208;-90
2022/09/10 12:45:53;;;;;;;2.30;1.00;;;23.70;99.90;;;;;;5075746;28;20209;-90
2022/09/10 12:48:22;;;;;;;0.93;0.93;;;22.90;99.90;;;;;;5074441;28;20242;-90
2022/09/10 12:50:57;;;;;;;1.20;1.10;;;22.50;99.90;;;;;;5073845;28;20240;-89
2022/09/10 12:53:47;;;;;;;0.75;0.75;;;22.20;99.90;;;;;;5074005;28;20212;-90
2022/09/10 12:56:36;;;;;;;1.45;1.10;;;21.80;99.90;;;;;;5074207;28;20205;-90
2022/09/10 12:59:36;;;;;;;1.17;1.08;;;21.80;99.90;;;;;;5073572;28;20229;-89
2022/09/10 13:02:20;;;;;;;0.90;0.90;;;21.90;99.90;;;;;;5074210;28;20224;-91
2022/09/10 13:04:57;;;;;;;0.82;0.82;;;22.50;99.90;;;;;;5074218;28;20205;-90
2022/09/10 13:07:31;;;;;;;1.05;0.95;;;23.20;99.90;;;;;;5074122;28;20205;-92
2022/09/10 13:10:06;;;;;;;0.77;0.77;;;23.10;99.90;;;;;;5074153;28;20209;-90
2022/09/10 13:12:40;;;;;;;0.80;0.80;;;22.90;99.90;;;;;;5073715;28;20201;-90
2022/09/10 13:15:18;;;;;;;0.73;0.73;;;23.00;99.90;;;;;;5073601;28;20216;-90
2022/09/10 13:18:25;;;;;;;0.80;0.73;;;22.80;99.90;;;;;;5073405;28;20221;-91